createdAt,value
2023-04-25T00:03:01.787Z,7.90
2023-04-25T00:08:08.798Z,8.00
2023-04-25T00:13:16.238Z,8.10
2023-04-25T00:18:24.024Z,7.90
2023-04-25T00:23:30.971Z,7.70
2023-04-25T00:28:37.762Z,7.50
2023-04-25T00:33:44.978Z,7.60
2023-04-25T00:38:52.100Z,7.80
2023-04-25T00:44:00.247Z,7.50
2023-04-25T00:49:07.101Z,7.40
2023-04-25T00:54:16.966Z,7.40
2023-04-25T00:59:24.986Z,6.90
2023-04-25T01:04:31.980Z,7.00
2023-04-25T01:09:39.892Z,7.10
2023-04-25T01:14:47.234Z,7.10
2023-04-25T01:19:54.245Z,7.00
2023-04-25T01:25:01.419Z,7.10
2023-04-25T01:30:10.080Z,7.00
2023-04-25T01:35:17.036Z,7.10
2023-04-25T01:40:25.212Z,7.10
2023-04-25T01:45:32.132Z,7.00
2023-04-25T01:50:40.670Z,6.90
2023-04-25T01:55:47.596Z,7.00
2023-04-25T02:00:54.592Z,7.10
2023-04-25T02:06:01.557Z,7.20
2023-04-25T02:11:09.089Z,7.00
2023-04-25T02:16:16.949Z,6.90
2023-04-25T02:21:23.913Z,6.90
2023-04-25T02:26:31.380Z,6.70
2023-04-25T02:31:40.244Z,6.90
2023-04-25T02:36:47.730Z,7.10
2023-04-25T02:41:54.887Z,7.00
2023-04-25T02:47:01.844Z,6.90
2023-04-25T02:52:08.694Z,7.10
2023-04-25T02:57:15.540Z,6.90
2023-04-25T03:02:22.351Z,7.20
2023-04-25T03:07:29.532Z,7.10
2023-04-25T03:12:36.442Z,6.90
2023-04-25T03:17:43.501Z,6.60
2023-04-25T03:22:50.410Z,6.90
2023-04-25T03:27:57.366Z,6.90
2023-04-25T03:33:04.477Z,6.60
2023-04-25T03:38:11.397Z,6.60
2023-04-25T03:43:18.178Z,6.50
2023-04-25T03:48:26.584Z,6.20
2023-04-25T03:53:33.700Z,6.00
2023-04-25T03:58:40.689Z,6.10
2023-04-25T04:03:47.487Z,6.20
2023-04-25T04:08:55.999Z,6.20
2023-04-25T04:14:03.060Z,6.40
2023-04-25T04:19:09.822Z,6.20
2023-04-25T04:24:18.056Z,6.30
2023-04-25T04:29:25.152Z,6.20
2023-04-25T04:34:32.459Z,6.20
2023-04-25T04:39:40.216Z,6.10
2023-04-25T04:44:47.119Z,6.20
2023-04-25T04:49:54.105Z,6.20
2023-04-25T04:55:18.182Z,6.20
2023-04-25T05:00:14.794Z,6.30
2023-04-25T05:05:22.288Z,6.20
2023-04-25T05:10:29.429Z,6.30
2023-04-25T05:15:36.250Z,6.20
2023-04-25T05:20:43.044Z,6.30
2023-04-25T05:25:49.995Z,6.30
2023-04-25T05:30:56.868Z,6.20
2023-04-25T05:36:03.678Z,6.20
2023-04-25T05:41:10.746Z,6.30
2023-04-25T05:46:19.308Z,6.50
2023-04-25T05:51:26.265Z,6.50
2023-04-25T05:56:33.150Z,6.70
2023-04-25T06:01:40.035Z,6.70
2023-04-25T06:06:46.843Z,7.10
2023-04-25T06:11:54.413Z,7.00
2023-04-25T06:17:01.267Z,7.20
2023-04-25T06:22:09.699Z,7.50
2023-04-25T06:27:17.176Z,7.60
2023-04-25T06:32:24.225Z,7.40
2023-04-25T06:37:32.374Z,7.50
2023-04-25T06:42:39.141Z,7.60
2023-04-25T06:47:45.986Z,7.60
2023-04-25T06:52:52.996Z,7.50
2023-04-25T06:57:59.832Z,8.10
2023-04-25T07:03:06.763Z,8.20
2023-04-25T07:08:13.855Z,8.90
2023-04-25T07:13:21.864Z,9.10
2023-04-25T07:18:28.997Z,9.60
2023-04-25T07:23:38.866Z,9.90
2023-04-25T07:28:45.965Z,10.10
2023-04-25T07:33:52.994Z,10.40
2023-04-25T07:38:59.772Z,10.30
2023-04-25T07:44:07.086Z,10.10
2023-04-25T07:49:14.289Z,10.40
2023-04-25T07:54:21.267Z,10.90
2023-04-25T07:59:30.614Z,10.90
2023-04-25T08:04:37.560Z,11.60
2023-04-25T08:09:45.072Z,12.00
2023-04-25T08:14:52.141Z,11.40
2023-04-25T08:19:59.129Z,11.00
2023-04-25T08:25:06.677Z,10.70
2023-04-25T08:30:13.918Z,10.70
2023-04-25T08:35:22.017Z,10.30
2023-04-25T08:40:31.501Z,10.40
2023-04-25T08:45:45.284Z,10.70
2023-04-25T08:50:57.662Z,10.70
2023-04-25T08:56:05.698Z,10.50
2023-04-25T09:01:16.877Z,10.50
2023-04-25T09:06:23.109Z,10.70
2023-04-25T09:11:31.968Z,10.50
2023-04-25T09:16:39.784Z,10.80
2023-04-25T09:21:48.441Z,11.00
2023-04-25T09:26:55.414Z,11.20
2023-04-25T09:32:26.047Z,11.50
2023-04-25T09:37:33.983Z,11.80
2023-04-25T09:42:44.931Z,12.50
2023-04-25T09:47:52.759Z,13.30
2023-04-25T09:53:09.505Z,12.60
2023-04-25T09:58:19.559Z,12.40
2023-04-25T10:03:28.866Z,13.10
2023-04-25T10:08:40.088Z,13.50
2023-04-25T10:13:49.303Z,14.10
2023-04-25T10:18:57.108Z,13.70
2023-04-25T10:24:06.828Z,14.50
2023-04-25T10:29:13.993Z,14.60
2023-04-25T10:34:22.183Z,15.50
2023-04-25T10:39:30.589Z,14.40
2023-04-25T10:44:41.413Z,13.90
2023-04-25T10:49:48.168Z,13.90
2023-04-25T10:55:00.426Z,13.80
2023-04-25T11:00:14.339Z,13.80
2023-04-25T11:05:36.538Z,13.80
2023-04-25T11:10:44.539Z,13.80
2023-04-25T11:16:03.353Z,13.90
2023-04-25T11:21:05.755Z,13.30
2023-04-25T11:26:16.833Z,12.90
2023-04-25T11:31:28.928Z,12.40
2023-04-25T11:36:35.717Z,11.90
2023-04-25T11:41:45.837Z,11.60
2023-04-25T11:46:52.880Z,11.80
2023-04-25T11:51:59.712Z,11.80
2023-04-25T11:57:08.212Z,12.10
2023-04-25T12:02:28.364Z,12.50
2023-04-25T12:07:36.309Z,12.90
2023-04-25T12:12:45.948Z,13.30
2023-04-25T12:17:56.105Z,13.50
2023-04-25T12:23:03.219Z,13.60
2023-04-25T12:28:25.034Z,13.60
2023-04-25T12:33:38.261Z,13.60
2023-04-25T12:38:46.394Z,13.70
2023-04-25T12:43:53.284Z,13.60
2023-04-25T12:49:11.682Z,13.50
2023-04-25T12:54:10.594Z,13.50
2023-04-25T12:59:19.514Z,13.30
2023-04-25T13:04:26.715Z,13.70
2023-04-25T13:09:33.620Z,14.00
2023-04-25T13:14:41.026Z,13.70
2023-04-25T13:19:48.836Z,13.20
2023-04-25T13:24:56.037Z,13.20
2023-04-25T13:30:05.462Z,13.10
2023-04-25T13:35:16.528Z,13.30
2023-04-25T13:40:25.300Z,13.00
2023-04-25T13:45:33.559Z,12.90
2023-04-25T13:50:40.396Z,13.10
2023-04-25T13:55:47.711Z,13.30
2023-04-25T14:00:55.089Z,13.20
2023-04-25T14:06:02.237Z,13.70
2023-04-25T14:11:09.312Z,13.90
2023-04-25T14:16:16.493Z,13.70
2023-04-25T14:21:24.032Z,13.20
2023-04-25T14:26:31.526Z,13.00
2023-04-25T14:31:39.221Z,12.80
2023-04-25T14:36:46.442Z,12.20
2023-04-25T14:41:53.526Z,11.30
2023-04-25T14:47:00.743Z,11.20
2023-04-25T14:52:08.349Z,11.10
2023-04-25T14:57:17.226Z,11.50
2023-04-25T15:02:24.487Z,11.40
2023-04-25T15:07:32.091Z,11.70
2023-04-25T15:12:39.358Z,11.90
2023-04-25T15:17:46.694Z,12.30
2023-04-25T15:22:54.415Z,12.60
2023-04-25T15:28:01.343Z,12.60
2023-04-25T15:33:08.594Z,13.10
2023-04-25T15:38:15.703Z,13.00
2023-04-25T15:43:22.649Z,12.80
2023-04-25T15:48:29.740Z,12.80
2023-04-25T15:53:36.856Z,12.80
2023-04-25T15:58:43.905Z,12.50
2023-04-25T16:03:53.456Z,12.60
2023-04-25T16:09:00.914Z,12.60
2023-04-25T16:14:09.370Z,12.30
2023-04-25T16:19:16.767Z,12.20
2023-04-25T16:24:23.885Z,12.00
2023-04-25T16:29:31.782Z,11.90
2023-04-25T16:34:38.581Z,11.70
2023-04-25T16:39:49.347Z,11.20
2023-04-25T16:44:56.265Z,11.10
2023-04-25T16:50:05.051Z,10.90
2023-04-25T16:55:12.368Z,10.90
2023-04-25T17:00:19.902Z,10.60
2023-04-25T17:05:27.787Z,10.50
2023-04-25T17:10:35.407Z,10.10
2023-04-25T17:15:42.094Z,9.80
2023-04-25T17:20:48.898Z,9.70
2023-04-25T17:25:55.583Z,9.70
2023-04-25T17:31:02.393Z,9.60
2023-04-25T17:36:09.764Z,9.40
2023-04-25T17:41:17.745Z,9.20
2023-04-25T17:46:24.719Z,9.10
2023-04-25T17:51:32.968Z,9.10
2023-04-25T17:56:41.364Z,9.10
2023-04-25T18:01:49.107Z,9.00
2023-04-25T18:06:56.381Z,9.00
2023-04-25T18:12:04.927Z,9.00
2023-04-25T18:17:12.626Z,9.00
2023-04-25T18:22:20.150Z,9.00
2023-04-25T18:27:27.399Z,9.00
2023-04-25T18:32:34.552Z,9.10
2023-04-25T18:37:42.306Z,9.00
2023-04-25T18:42:49.809Z,8.80
2023-04-25T18:47:56.682Z,8.60
2023-04-25T18:53:03.711Z,8.70
2023-04-25T18:58:10.407Z,8.50
2023-04-25T19:03:17.865Z,8.60
2023-04-25T19:08:26.625Z,8.40
2023-04-25T19:13:35.364Z,8.00
2023-04-25T19:18:43.022Z,7.80
2023-04-25T19:23:50.100Z,7.80
2023-04-25T19:29:15.491Z,7.80
2023-04-25T19:34:22.517Z,7.90
2023-04-25T19:39:31.455Z,7.50
2023-04-25T19:44:40.083Z,7.60
2023-04-25T19:49:47.901Z,7.60
2023-04-25T19:54:56.375Z,7.90
2023-04-25T20:00:05.939Z,7.90
2023-04-25T20:05:13.962Z,7.80
2023-04-25T20:10:20.857Z,7.80
2023-04-25T20:15:28.108Z,7.80
2023-04-25T20:20:35.140Z,7.70
2023-04-25T20:25:42.172Z,7.60
2023-04-25T20:30:49.964Z,7.50
2023-04-25T20:35:57.141Z,7.50
2023-04-25T20:41:04.136Z,7.50
2023-04-25T20:46:11.671Z,7.40
2023-04-25T20:51:18.759Z,7.40
2023-04-25T20:56:26.855Z,7.20
2023-04-25T21:01:34.898Z,7.40
2023-04-25T21:06:42.313Z,7.50
2023-04-25T21:11:49.780Z,7.50
2023-04-25T21:16:56.899Z,7.40
2023-04-25T21:22:04.232Z,7.20
2023-04-25T21:27:11.103Z,7.10
2023-04-25T21:32:19.596Z,7.00
2023-04-25T21:37:26.734Z,7.20
2023-04-25T21:42:33.998Z,7.40
2023-04-25T21:47:41.502Z,7.30
2023-04-25T21:52:49.970Z,7.20
2023-04-25T21:57:56.992Z,7.60
2023-04-25T22:03:04.191Z,7.50
2023-04-25T22:08:11.264Z,7.50
2023-04-25T22:13:18.228Z,7.30
2023-04-25T22:18:25.043Z,7.30
2023-04-25T22:23:31.988Z,7.10
2023-04-25T22:28:41.054Z,7.10
2023-04-25T22:33:49.138Z,7.00
2023-04-25T22:38:56.503Z,6.90
2023-04-25T22:44:03.495Z,6.80
2023-04-25T22:49:10.656Z,6.80
2023-04-25T22:54:17.424Z,7.00
2023-04-25T22:59:24.645Z,6.80
2023-04-25T23:04:31.832Z,7.00
2023-04-25T23:09:39.154Z,7.00
2023-04-25T23:14:47.797Z,6.80
2023-04-25T23:19:55.147Z,7.10
2023-04-25T23:25:02.662Z,7.10
2023-04-25T23:30:11.861Z,7.10
2023-04-25T23:35:18.693Z,7.10
2023-04-25T23:40:25.910Z,7.10
2023-04-25T23:45:33.225Z,7.00
2023-04-25T23:50:40.003Z,7.00
2023-04-25T23:55:46.879Z,7.00
